createdAt,value
2018-10-05T00:01:57.491Z,17.70
2018-10-05T00:04:26.472Z,16.70
2018-10-05T00:06:54.974Z,14.60
2018-10-05T00:09:23.483Z,16.10
2018-10-05T00:11:51.952Z,15.30
2018-10-05T00:14:20.409Z,17.23
2018-10-05T00:16:48.953Z,18.30
2018-10-05T00:19:17.484Z,17.27
2018-10-05T00:21:45.920Z,17.73
2018-10-05T00:24:14.356Z,15.33
2018-10-05T00:26:42.820Z,16.50
2018-10-05T00:29:11.268Z,16.73
2018-10-05T00:31:39.747Z,17.63
2018-10-05T00:34:08.293Z,14.30
2018-10-05T00:36:36.751Z,19.13
2018-10-05T00:39:06.977Z,14.27
2018-10-05T00:41:35.473Z,15.27
2018-10-05T00:44:03.948Z,17.70
2018-10-05T00:46:32.391Z,22.87
2018-10-05T00:49:00.880Z,13.97
2018-10-05T00:51:29.958Z,19.03
2018-10-05T00:53:58.383Z,23.37
2018-10-05T00:56:26.903Z,13.27
2018-10-05T00:58:55.351Z,16.90
2018-10-05T01:01:23.832Z,15.40
2018-10-05T01:03:52.283Z,19.33
2018-10-05T01:06:20.761Z,18.23
2018-10-05T01:08:49.199Z,15.10
2018-10-05T01:11:17.840Z,15.37
2018-10-05T01:13:46.340Z,17.70
2018-10-05T01:16:14.809Z,16.23
2018-10-05T01:18:43.204Z,18.60
2018-10-05T01:21:11.648Z,9.83
2018-10-05T01:23:40.072Z,12.97
2018-10-05T01:26:08.640Z,13.53
2018-10-05T01:28:37.560Z,10.97
2018-10-05T01:31:05.987Z,9.33
2018-10-05T01:33:34.436Z,13.90
2018-10-05T01:36:02.944Z,15.27
2018-10-05T01:38:31.403Z,10.67
2018-10-05T01:40:59.879Z,13.60
2018-10-05T01:43:29.497Z,10.77
2018-10-05T01:45:57.966Z,11.03
2018-10-05T01:48:26.454Z,12.10
2018-10-05T01:50:54.943Z,15.60
2018-10-05T01:53:24.562Z,12.83
2018-10-05T01:55:53.114Z,12.83
2018-10-05T01:58:21.635Z,14.03
2018-10-05T02:00:50.114Z,8.30
2018-10-05T02:03:18.619Z,9.37
2018-10-05T02:05:47.131Z,10.80
2018-10-05T02:08:15.606Z,9.17
2018-10-05T02:10:44.083Z,9.33
2018-10-05T02:13:12.621Z,12.87
2018-10-05T02:15:41.168Z,8.53
2018-10-05T02:18:09.910Z,10.53
2018-10-05T02:20:40.308Z,9.60
2018-10-05T02:23:08.764Z,8.60
2018-10-05T02:25:37.570Z,8.80
2018-10-05T02:28:06.112Z,14.37
2018-10-05T02:30:34.572Z,13.53
2018-10-05T02:33:03.182Z,13.83
2018-10-05T02:35:32.575Z,16.83
2018-10-05T02:38:01.098Z,13.33
2018-10-05T02:40:30.073Z,17.47
2018-10-05T02:42:58.569Z,17.20
2018-10-05T02:45:28.024Z,14.87
2018-10-05T02:47:56.515Z,10.40
2018-10-05T02:50:24.973Z,11.13
2018-10-05T02:52:53.759Z,10.43
2018-10-05T02:55:22.201Z,12.73
2018-10-05T02:57:50.831Z,13.63
2018-10-05T03:00:30.579Z,14.13
2018-10-05T03:02:59.052Z,11.77
2018-10-05T03:05:27.780Z,11.57
2018-10-05T03:07:56.261Z,16.00
2018-10-05T03:10:25.398Z,11.03
2018-10-05T03:12:53.901Z,10.37
2018-10-05T03:15:22.406Z,16.27
2018-10-05T03:17:50.864Z,14.70
2018-10-05T03:20:19.335Z,14.63
2018-10-05T03:22:49.032Z,14.60
2018-10-05T03:25:17.431Z,13.63
2018-10-05T03:27:46.321Z,14.07
2018-10-05T03:30:14.760Z,13.17
2018-10-05T03:32:43.234Z,8.77
2018-10-05T03:35:12.177Z,6.97
2018-10-05T03:37:40.651Z,10.07
2018-10-05T03:40:09.868Z,10.87
2018-10-05T03:42:38.948Z,8.50
2018-10-05T03:45:08.717Z,12.10
2018-10-05T03:47:37.143Z,11.07
2018-10-05T03:50:05.883Z,7.73
2018-10-05T03:52:34.357Z,11.53
2018-10-05T03:55:03.392Z,11.57
2018-10-05T03:57:31.863Z,11.27
2018-10-05T04:00:00.567Z,11.53
2018-10-05T04:02:29.183Z,10.37
2018-10-05T04:04:57.834Z,10.17
2018-10-05T04:07:26.443Z,10.93
2018-10-05T04:09:55.956Z,9.07
2018-10-05T04:12:24.875Z,9.90
2018-10-05T04:14:53.731Z,9.90
2018-10-05T04:17:22.386Z,8.63
2018-10-05T04:19:50.843Z,10.43
2018-10-05T04:22:24.937Z,12.67
2018-10-05T04:24:53.689Z,10.27
2018-10-05T04:27:22.164Z,9.80
2018-10-05T04:29:50.744Z,10.43
2018-10-05T04:32:19.135Z,10.57
2018-10-05T04:34:48.625Z,8.20
2018-10-05T04:37:17.127Z,11.07
2018-10-05T04:39:47.235Z,9.27
2018-10-05T04:42:16.295Z,8.80
2018-10-05T04:44:44.851Z,8.37
2018-10-05T04:47:13.578Z,10.07
2018-10-05T04:49:42.157Z,10.77
2018-10-05T04:52:11.236Z,14.23
2018-10-05T04:54:39.758Z,10.17
2018-10-05T04:57:08.252Z,9.87
2018-10-05T04:59:36.771Z,10.63
2018-10-05T05:02:05.253Z,8.93
2018-10-05T05:04:33.765Z,11.47
2018-10-05T05:07:02.304Z,12.73
2018-10-05T05:09:30.822Z,14.57
2018-10-05T05:11:59.504Z,14.87
2018-10-05T05:14:28.192Z,10.10
2018-10-05T05:16:57.295Z,14.03
2018-10-05T05:19:25.842Z,12.40
2018-10-05T05:21:54.369Z,17.00
2018-10-05T05:24:22.819Z,9.90
2018-10-05T05:26:51.307Z,7.83
2018-10-05T05:29:19.767Z,10.93
2018-10-05T05:31:49.571Z,10.03
2018-10-05T05:34:18.066Z,9.40
2018-10-05T05:36:46.474Z,8.57
2018-10-05T05:39:15.019Z,9.37
2018-10-05T05:41:43.431Z,9.70
2018-10-05T05:44:11.944Z,11.83
2018-10-05T05:46:40.463Z,10.00
2018-10-05T05:49:09.712Z,10.27
2018-10-05T05:51:38.130Z,9.67
2018-10-05T05:54:06.788Z,9.73
2018-10-05T05:56:35.228Z,10.57
2018-10-05T05:59:03.849Z,9.20
2018-10-05T06:01:33.435Z,14.97
2018-10-05T06:04:01.892Z,8.73
2018-10-05T06:06:30.672Z,12.53
2018-10-05T06:08:59.242Z,14.97
2018-10-05T06:11:28.223Z,12.13
2018-10-05T06:13:56.897Z,8.90
2018-10-05T06:16:25.529Z,10.50
2018-10-05T06:18:54.056Z,9.17
2018-10-05T06:21:22.617Z,10.50
2018-10-05T06:23:51.029Z,10.23
2018-10-05T06:26:19.494Z,11.17
2018-10-05T06:28:48.143Z,10.13
2018-10-05T06:31:16.699Z,11.10
2018-10-05T06:33:45.100Z,11.87
2018-10-05T06:36:13.688Z,13.97
2018-10-05T06:38:42.163Z,11.80
2018-10-05T06:41:10.611Z,8.57
2018-10-05T06:43:39.043Z,10.93
2018-10-05T06:46:07.813Z,17.33
2018-10-05T06:48:36.286Z,14.83
2018-10-05T06:51:04.732Z,17.27
2018-10-05T06:53:33.188Z,14.00
2018-10-05T06:56:01.692Z,11.93
2018-10-05T06:58:31.182Z,17.87
2018-10-05T07:00:59.620Z,14.20
2018-10-05T07:03:28.096Z,14.67
2018-10-05T07:05:56.567Z,15.73
2018-10-05T07:08:24.990Z,12.37
2018-10-05T07:10:53.475Z,18.83
2018-10-05T07:13:21.883Z,27.93
2018-10-05T07:15:51.802Z,13.67
2018-10-05T07:18:23.840Z,10.83
2018-10-05T07:20:52.332Z,11.83
2018-10-05T07:23:21.297Z,12.20
2018-10-05T07:25:49.950Z,10.33
2018-10-05T07:28:18.450Z,10.30
2018-10-05T07:30:49.352Z,12.80
2018-10-05T07:33:18.114Z,14.00
2018-10-05T07:35:46.776Z,13.17
2018-10-05T07:38:15.244Z,11.27
2018-10-05T07:40:43.724Z,12.57
2018-10-05T07:43:12.214Z,13.80
2018-10-05T07:45:40.688Z,12.43
2018-10-05T07:48:10.235Z,11.70
2018-10-05T07:50:38.667Z,11.77
2018-10-05T07:53:07.785Z,10.27
2018-10-05T07:55:36.302Z,10.57
2018-10-05T07:58:04.756Z,13.43
2018-10-05T08:00:33.204Z,13.43
2018-10-05T08:03:01.833Z,13.60
2018-10-05T08:05:30.709Z,17.57
2018-10-05T08:07:59.155Z,13.33
2018-10-05T08:10:27.780Z,14.13
2018-10-05T08:12:56.447Z,15.90
2018-10-05T08:15:24.949Z,12.13
2018-10-05T08:17:53.414Z,14.57
2018-10-05T08:20:23.874Z,11.40
2018-10-05T08:22:52.388Z,11.47
2018-10-05T08:25:20.915Z,14.03
2018-10-05T08:27:49.544Z,13.63
2018-10-05T08:30:17.980Z,13.17
2018-10-05T08:32:47.012Z,11.60
2018-10-05T08:35:15.919Z,13.00
2018-10-05T08:37:44.345Z,10.10
2018-10-05T08:40:12.872Z,14.83
2018-10-05T08:42:41.277Z,14.03
2018-10-05T08:45:09.896Z,17.23
2018-10-05T08:47:38.364Z,12.93
2018-10-05T08:50:06.852Z,12.07
2018-10-05T08:52:35.317Z,11.50
2018-10-05T08:55:03.860Z,10.67
2018-10-05T08:57:32.832Z,16.03
2018-10-05T09:00:01.381Z,10.47
2018-10-05T09:02:30.784Z,12.33
2018-10-05T09:04:59.339Z,10.03
2018-10-05T09:07:27.839Z,9.43
2018-10-05T09:09:56.843Z,10.33
2018-10-05T09:12:25.289Z,9.10
2018-10-05T09:14:54.694Z,11.93
2018-10-05T09:17:23.239Z,12.07
2018-10-05T09:19:51.699Z,9.50
2018-10-05T09:22:20.236Z,10.77
2018-10-05T09:24:49.301Z,11.90
2018-10-05T09:27:17.789Z,10.07
2018-10-05T09:29:46.856Z,9.23
2018-10-05T09:32:15.297Z,7.43
2018-10-05T09:34:43.790Z,10.70
2018-10-05T09:37:12.857Z,11.00
2018-10-05T09:39:41.453Z,8.77
2018-10-05T09:42:11.691Z,8.37
2018-10-05T09:44:40.532Z,8.67
2018-10-05T09:47:09.248Z,7.77
2018-10-05T09:49:37.726Z,7.67
2018-10-05T09:52:06.197Z,9.73
2018-10-05T09:54:35.507Z,9.33
2018-10-05T09:57:04.058Z,8.57
2018-10-05T09:59:32.508Z,9.30
2018-10-05T10:02:06.443Z,8.53
2018-10-05T10:04:35.608Z,9.27
2018-10-05T10:07:04.056Z,8.90
2018-10-05T10:09:32.522Z,8.93
2018-10-05T10:12:00.956Z,7.97
2018-10-05T10:14:29.728Z,7.07
2018-10-05T10:16:58.238Z,7.07
2018-10-05T10:19:26.697Z,9.00
2018-10-05T10:21:55.135Z,6.77
2018-10-05T10:24:23.591Z,5.97
2018-10-05T10:26:52.942Z,5.53
2018-10-05T10:29:21.474Z,6.93
2018-10-05T10:31:50.844Z,8.80
2018-10-05T10:34:19.325Z,8.20
2018-10-05T10:36:47.868Z,7.33
2018-10-05T10:39:16.445Z,7.63
2018-10-05T10:41:44.854Z,9.50
2018-10-05T10:44:13.336Z,7.70
2018-10-05T10:46:41.744Z,7.90
2018-10-05T10:49:10.312Z,10.00
2018-10-05T10:51:38.753Z,8.17
2018-10-05T10:54:07.644Z,7.73
2018-10-05T10:56:36.064Z,8.43
2018-10-05T10:59:04.526Z,9.73
2018-10-05T11:01:33.791Z,6.93
2018-10-05T11:04:02.319Z,6.30
2018-10-05T11:06:30.819Z,8.17
2018-10-05T11:08:59.375Z,14.60
2018-10-05T11:11:27.917Z,6.10
2018-10-05T11:13:56.691Z,7.10
2018-10-05T11:16:25.336Z,6.63
2018-10-05T11:18:53.748Z,7.03
2018-10-05T11:21:22.221Z,7.67
2018-10-05T11:23:51.241Z,8.80
2018-10-05T11:26:19.695Z,7.97
2018-10-05T11:28:48.540Z,9.43
2018-10-05T11:31:17.033Z,8.97
2018-10-05T11:33:45.544Z,6.40
2018-10-05T11:36:14.000Z,7.93
2018-10-05T11:38:42.419Z,7.97
2018-10-05T11:41:10.892Z,7.00
2018-10-05T11:43:39.380Z,6.80
2018-10-05T11:46:08.022Z,9.90
2018-10-05T11:48:36.448Z,8.13
2018-10-05T11:51:05.228Z,4.47
2018-10-05T11:53:33.738Z,5.27
2018-10-05T11:56:02.237Z,7.70
2018-10-05T11:58:31.316Z,8.40
2018-10-05T12:00:59.793Z,9.03
2018-10-05T12:03:28.291Z,5.27
2018-10-05T12:05:56.850Z,6.07
2018-10-05T12:08:25.322Z,9.47
2018-10-05T12:10:53.889Z,5.53
2018-10-05T12:13:22.360Z,5.77
2018-10-05T12:15:51.498Z,5.03
2018-10-05T12:18:19.948Z,7.17
2018-10-05T12:20:48.718Z,4.87
2018-10-05T12:23:17.194Z,6.27
2018-10-05T12:25:45.691Z,6.53
2018-10-05T12:28:14.148Z,5.00
2018-10-05T12:30:42.636Z,4.70
2018-10-05T12:33:11.857Z,6.30
2018-10-05T12:35:41.223Z,6.77
2018-10-05T12:38:11.152Z,6.20
2018-10-05T12:40:39.636Z,5.07
2018-10-05T12:43:08.925Z,5.13
2018-10-05T12:45:39.053Z,8.37
2018-10-05T12:48:07.535Z,4.17
2018-10-05T12:50:36.000Z,4.93
2018-10-05T12:53:04.436Z,5.67
2018-10-05T12:55:33.622Z,4.57
2018-10-05T12:58:02.031Z,4.57
2018-10-05T13:00:30.500Z,4.60
2018-10-05T13:02:58.949Z,5.53
2018-10-05T13:05:27.500Z,6.17
2018-10-05T13:07:55.936Z,8.00
2018-10-05T13:10:24.399Z,5.63
2018-10-05T13:12:52.912Z,5.73
2018-10-05T13:15:21.356Z,4.53
2018-10-05T13:17:49.903Z,4.83
2018-10-05T13:20:18.368Z,4.77
2018-10-05T13:22:46.816Z,5.57
2018-10-05T13:25:15.932Z,3.57
2018-10-05T13:27:44.438Z,4.20
2018-10-05T13:30:12.947Z,5.40
2018-10-05T13:32:41.439Z,8.17
2018-10-05T13:35:10.421Z,4.50
2018-10-05T13:37:39.824Z,3.20
2018-10-05T13:40:09.788Z,2.63
2018-10-05T13:42:38.908Z,3.43
2018-10-05T13:45:07.635Z,3.03
2018-10-05T13:47:36.096Z,4.63
2018-10-05T13:50:04.810Z,3.97
2018-10-05T13:52:33.279Z,5.57
2018-10-05T13:55:01.903Z,3.60
2018-10-05T13:57:30.505Z,4.90
2018-10-05T13:59:59.028Z,2.70
2018-10-05T14:02:27.645Z,3.60
2018-10-05T14:04:57.049Z,3.47
2018-10-05T14:07:26.482Z,4.47
2018-10-05T14:09:55.071Z,3.57
2018-10-05T14:12:23.596Z,4.77
2018-10-05T14:14:52.165Z,4.20
2018-10-05T14:17:20.624Z,5.80
2018-10-05T14:19:49.355Z,2.77
2018-10-05T14:22:17.850Z,6.77
2018-10-05T14:24:46.239Z,8.30
2018-10-05T14:27:14.723Z,3.27
2018-10-05T14:29:43.219Z,3.40
2018-10-05T14:32:12.540Z,4.43
2018-10-05T14:34:41.275Z,4.43
2018-10-05T14:37:10.674Z,3.97
2018-10-05T14:39:39.073Z,4.43
2018-10-05T14:42:07.524Z,6.50
2018-10-05T14:44:35.974Z,3.30
2018-10-05T14:47:04.896Z,3.93
2018-10-05T14:49:33.518Z,3.23
2018-10-05T14:52:02.111Z,4.97
2018-10-05T14:54:36.146Z,5.40
2018-10-05T14:57:04.637Z,3.20
2018-10-05T14:59:33.040Z,4.20
2018-10-05T15:02:01.512Z,2.97
2018-10-05T15:04:30.732Z,3.27
2018-10-05T15:06:59.518Z,3.20
2018-10-05T15:09:29.799Z,5.43
2018-10-05T15:11:58.226Z,4.33
2018-10-05T15:14:26.669Z,3.43
2018-10-05T15:16:55.130Z,4.40
2018-10-05T15:19:23.646Z,4.00
2018-10-05T15:21:52.755Z,3.83
2018-10-05T15:24:21.293Z,3.23
2018-10-05T15:26:49.999Z,3.33
2018-10-05T15:29:18.565Z,3.53
2018-10-05T15:31:47.119Z,5.43
2018-10-05T15:34:15.776Z,4.77
2018-10-05T15:36:44.252Z,5.50
2018-10-05T15:39:13.385Z,5.00
2018-10-05T15:41:41.937Z,8.97
2018-10-05T15:44:11.849Z,3.90
2018-10-05T15:47:18.072Z,5.90
2018-10-05T15:49:46.789Z,2.73
2018-10-05T15:52:15.327Z,5.33
2018-10-05T15:54:44.135Z,4.33
2018-10-05T15:57:13.378Z,4.63
2018-10-05T15:59:42.390Z,4.57
2018-10-05T16:02:11.322Z,7.43
2018-10-05T16:04:39.870Z,4.00
2018-10-05T16:07:08.369Z,3.00
2018-10-05T16:09:36.843Z,3.03
2018-10-05T16:12:05.420Z,4.27
2018-10-05T16:14:34.606Z,3.33
2018-10-05T16:17:03.225Z,4.30
2018-10-05T16:19:33.248Z,7.83
2018-10-05T16:22:03.187Z,3.20
2018-10-05T16:24:36.210Z,4.53
2018-10-05T16:27:04.701Z,4.63
2018-10-05T16:29:33.980Z,3.73
2018-10-05T16:32:03.553Z,4.07
2018-10-05T16:34:32.592Z,3.30
2018-10-05T16:37:01.032Z,5.20
2018-10-05T16:39:32.179Z,5.77
2018-10-05T16:42:01.304Z,5.80
2018-10-05T16:44:29.884Z,4.17
2018-10-05T16:46:58.360Z,4.40
2018-10-05T16:49:27.851Z,6.47
2018-10-05T16:51:57.132Z,4.57
2018-10-05T16:54:26.292Z,4.77
2018-10-05T16:56:55.008Z,3.40
2018-10-05T16:59:23.491Z,15.33
2018-10-05T17:01:52.220Z,4.13
2018-10-05T17:04:20.758Z,3.70
2018-10-05T17:06:49.171Z,3.97
2018-10-05T17:09:17.654Z,4.73
2018-10-05T17:11:46.712Z,6.60
2018-10-05T17:14:15.280Z,4.40
2018-10-05T17:16:43.708Z,4.80
2018-10-05T17:19:13.038Z,5.83
2018-10-05T17:21:41.491Z,4.83
2018-10-05T17:24:09.947Z,3.97
2018-10-05T17:26:38.344Z,4.87
2018-10-05T17:29:06.854Z,45.70
2018-10-05T17:31:35.403Z,19.53
2018-10-05T17:34:03.825Z,5.57
2018-10-05T17:36:32.783Z,7.43
2018-10-05T17:39:01.212Z,5.20
2018-10-05T17:41:29.650Z,5.10
2018-10-05T17:43:58.096Z,5.93
2018-10-05T17:46:26.566Z,4.50
2018-10-05T17:48:55.109Z,6.13
2018-10-05T17:51:23.584Z,6.23
2018-10-05T17:53:53.627Z,5.20
2018-10-05T17:56:22.094Z,7.73
2018-10-05T17:58:50.547Z,6.97
2018-10-05T18:01:19.082Z,4.63
2018-10-05T18:03:47.571Z,6.37
2018-10-05T18:06:16.070Z,5.67
2018-10-05T18:08:44.473Z,5.70
2018-10-05T18:11:13.695Z,7.97
2018-10-05T18:13:42.165Z,5.87
2018-10-05T18:16:11.079Z,7.30
2018-10-05T18:18:39.626Z,5.50
2018-10-05T18:21:08.269Z,8.63
2018-10-05T18:23:36.724Z,5.17
2018-10-05T18:26:05.400Z,4.70
2018-10-05T18:28:33.900Z,7.03
2018-10-05T18:31:03.113Z,5.27
2018-10-05T18:33:31.952Z,5.47
2018-10-05T18:36:00.323Z,6.33
2018-10-05T18:38:28.749Z,5.60
2018-10-05T18:40:57.264Z,5.57
2018-10-05T18:43:25.768Z,7.80
2018-10-05T18:45:54.249Z,5.47
2018-10-05T18:48:22.693Z,5.77
2018-10-05T18:50:52.803Z,7.10
2018-10-05T18:53:21.286Z,7.13
2018-10-05T18:55:50.398Z,6.20
2018-10-05T18:58:18.884Z,9.03
2018-10-05T19:00:48.351Z,5.30
2018-10-05T19:03:16.931Z,6.73
2018-10-05T19:05:45.467Z,5.80
2018-10-05T19:08:14.923Z,10.20
2018-10-05T19:10:43.875Z,6.83
2018-10-05T19:13:13.072Z,5.27
2018-10-05T19:15:41.535Z,5.53
2018-10-05T19:18:10.012Z,5.20
2018-10-05T19:20:38.504Z,9.23
2018-10-05T19:23:06.979Z,6.10
2018-10-05T19:25:35.414Z,7.37
2018-10-05T19:28:04.171Z,6.17
2018-10-05T19:30:32.595Z,5.57
2018-10-05T19:33:01.243Z,8.40
2018-10-05T19:35:29.652Z,7.50
2018-10-05T19:37:58.123Z,6.93
2018-10-05T19:40:27.062Z,7.20
2018-10-05T19:42:55.562Z,9.03
2018-10-05T19:45:24.101Z,6.73
2018-10-05T19:47:52.590Z,7.93
2018-10-05T19:50:20.991Z,6.37
2018-10-05T19:52:49.434Z,6.93
2018-10-05T19:55:17.883Z,7.93
2018-10-05T19:57:46.335Z,6.90
2018-10-05T20:00:15.226Z,6.50
2018-10-05T20:02:43.692Z,8.07
2018-10-05T20:05:12.122Z,7.90
2018-10-05T20:07:40.538Z,6.60
2018-10-05T20:10:08.996Z,8.80
2018-10-05T20:12:37.442Z,6.87
2018-10-05T20:15:05.854Z,6.13
2018-10-05T20:17:34.453Z,7.23
2018-10-05T20:20:02.873Z,11.10
2018-10-05T20:22:31.869Z,6.40
2018-10-05T20:25:00.295Z,7.87
2018-10-05T20:27:28.781Z,6.37
2018-10-05T20:29:57.231Z,6.93
2018-10-05T20:32:25.683Z,7.47
2018-10-05T20:34:54.135Z,5.80
2018-10-05T20:37:22.837Z,6.83
2018-10-05T20:39:51.259Z,6.70
2018-10-05T20:42:19.711Z,7.70
2018-10-05T20:44:48.169Z,8.17
2018-10-05T20:47:16.605Z,8.10
2018-10-05T20:49:45.032Z,7.53
2018-10-05T20:52:13.451Z,8.40
2018-10-05T20:54:42.100Z,8.67
2018-10-05T20:57:10.528Z,7.90
2018-10-05T20:59:39.655Z,9.73
2018-10-05T21:02:08.200Z,6.37
2018-10-05T21:04:36.675Z,9.57
2018-10-05T21:07:05.092Z,8.80
2018-10-05T21:09:33.815Z,6.93
2018-10-05T21:12:02.472Z,6.70
2018-10-05T21:14:30.936Z,6.47
2018-10-05T21:16:59.437Z,8.20
2018-10-05T21:19:27.895Z,9.13
2018-10-05T21:21:56.328Z,8.10
2018-10-05T21:24:24.891Z,9.33
2018-10-05T21:26:54.033Z,10.00
2018-10-05T21:29:22.543Z,9.70
2018-10-05T21:31:51.013Z,8.77
2018-10-05T21:34:19.474Z,7.83
2018-10-05T21:36:47.905Z,7.10
2018-10-05T21:39:17.677Z,8.30
2018-10-05T21:41:46.076Z,9.23
2018-10-05T21:44:14.796Z,12.40
2018-10-05T21:46:43.236Z,10.63
2018-10-05T21:49:11.675Z,7.97
2018-10-05T21:51:40.112Z,9.43
2018-10-05T21:54:08.627Z,7.60
2018-10-05T21:56:37.068Z,9.40
2018-10-05T21:59:06.447Z,8.47
2018-10-05T22:01:34.922Z,8.83
2018-10-05T22:04:03.371Z,8.93
2018-10-05T22:06:32.497Z,7.23
2018-10-05T22:09:01.055Z,7.63
2018-10-05T22:11:29.541Z,9.60
2018-10-05T22:13:57.984Z,7.77
2018-10-05T22:16:26.408Z,9.43
2018-10-05T22:18:56.856Z,7.60
2018-10-05T22:21:25.372Z,7.87
2018-10-05T22:23:54.478Z,8.00
2018-10-05T22:26:22.945Z,7.70
2018-10-05T22:28:51.433Z,7.23
2018-10-05T22:31:19.874Z,8.03
2018-10-05T22:33:48.315Z,8.40
2018-10-05T22:36:16.780Z,8.63
2018-10-05T22:38:45.262Z,7.43
2018-10-05T22:41:13.774Z,6.73
2018-10-05T22:43:42.270Z,8.23
2018-10-05T22:46:10.725Z,7.60
2018-10-05T22:48:39.156Z,8.37
2018-10-05T22:51:07.657Z,8.07
2018-10-05T22:53:36.091Z,8.70
2018-10-05T22:56:04.629Z,9.87
2018-10-05T22:58:33.130Z,8.23
2018-10-05T23:01:01.589Z,9.27
2018-10-05T23:03:31.168Z,9.17
2018-10-05T23:05:59.653Z,8.43
2018-10-05T23:08:28.113Z,7.63
2018-10-05T23:10:56.575Z,9.33
2018-10-05T23:13:25.064Z,7.63
2018-10-05T23:15:54.582Z,11.27
2018-10-05T23:18:23.111Z,8.03
2018-10-05T23:20:51.632Z,7.83
2018-10-05T23:23:20.088Z,10.23
2018-10-05T23:25:48.599Z,7.33
2018-10-05T23:28:17.100Z,7.33
2018-10-05T23:30:45.604Z,6.90
2018-10-05T23:33:15.717Z,7.70
2018-10-05T23:35:44.419Z,8.27
2018-10-05T23:38:13.059Z,8.97
2018-10-05T23:40:41.944Z,7.87
2018-10-05T23:43:10.739Z,7.43
2018-10-05T23:45:39.216Z,7.67
2018-10-05T23:48:07.733Z,7.73
2018-10-05T23:50:36.225Z,6.40
2018-10-05T23:53:04.666Z,6.50
2018-10-05T23:55:34.327Z,7.50
2018-10-05T23:58:03.628Z,7.03
